Kent, United Kingdom
Current Conditions -  °F | °C
As of 9:20 AM on Wednesday 28 Jan 2015 (Local Time) from EGNC Reporting Station
Rain Showers Rain Showers  
Wind Chill: 28°   Ceiling: 2400
Heat Index: 39°   Visibility: 6mi
Dew Point: 36°   Wind: 25mph
Humidity: 87%   Direction: 270°W
Pressure: 29.26"   Gusts: 38mph
Location:  54.35°N, 2.8°W
Report Text: EGNC 280920Z 27022G33KT 9999 VCSH FEW012 SCT018 BKN024 04/02 Q0991
Loading
Personal Weather Stations






























Interactive Weather Map New forecast layout! Learn more

10-Day Weather Forecast

Advertisements
Track Severe Weather on mobile